Time;durP1;ratioP1;P1;durP2;ratioP2;P2;SDS_P1;SDS_P2;PMS_P1;PMS_P2;Temp;Humidity;BMP_temperature;BMP_pressure;BME280_temperature;BME280_humidity;BME280_pressure;Samples;Min_cycle;Max_cycle;Signal;HPM_P1;HPM_P2
2022/07/13 00:11:10;;;;;;;6.10;3.90;;;;;;;24.52;45.46;101510.94;694607;28;1397;-79
2022/07/13 00:11:36;;;;;;;5.90;4.20;;;;;;;24.55;45.32;101516.25;686069;28;1889;-79
2022/07/13 00:12:01;;;;;;;4.78;4.15;;;;;;;24.55;45.41;101516.25;681874;28;1915;-79
2022/07/13 00:17:16;;;;;;;5.68;4.25;;;;;;;24.53;45.23;101528.72;684519;28;1715;-79
2022/07/13 00:17:55;;;;;;;8.05;4.32;;;;;;;24.45;45.30;101514.63;678473;29;1544;-80
2022/07/13 00:18:17;;;;;;;8.80;4.50;;;;;;;24.48;45.25;101528.78;672216;29;1687;-80
2022/07/13 00:18:40;;;;;;;7.80;4.22;;;;;;;24.50;45.51;101534.13;676135;29;1786;-80
2022/07/13 00:19:02;;;;;;;7.55;4.25;;;;;;;24.44;45.14;101521.78;676686;29;1527;-80
2022/07/13 00:19:24;;;;;;;6.60;4.30;;;;;;;24.48;45.33;101534.13;682788;28;1888;-80
2022/07/13 00:19:45;;;;;;;5.55;4.50;;;;;;;24.44;45.05;101523.53;686873;28;1571;-80
2022/07/13 00:20:08;;;;;;;5.97;4.30;;;;;;;24.44;45.24;101526.22;692669;28;1560;-79
2022/07/13 00:20:30;;;;;;;4.90;4.20;;;;;;;24.46;45.47;101527.94;686424;28;1522;-80
2022/07/13 01:06:45;;;;;;;4.72;4.32;;;;;;;24.32;46.07;101514.84;684594;28;1385;-79
2022/07/13 01:07:08;;;;;;;4.97;4.18;;;;;;;24.31;45.92;101515.75;679633;29;1614;-79
2022/07/13 01:07:34;;;;;;;5.50;4.30;;;;;;;24.30;46.11;101514.00;676352;29;1778;-79
2022/07/13 01:07:56;;;;;;;5.13;4.50;;;;;;;24.32;46.12;101519.28;674259;29;1691;-79
2022/07/13 01:08:21;;;;;;;5.25;4.68;;;;;;;24.31;46.11;101518.41;673714;29;1939;-79
2022/07/13 01:08:46;;;;;;;5.55;4.70;;;;;;;24.29;46.08;101514.88;678911;29;1566;-79
2022/07/13 01:09:12;;;;;;;4.90;4.40;;;;;;;24.32;45.96;101524.63;679299;29;1422;-80
2022/07/13 01:09:37;;;;;;;4.90;4.00;;;;;;;24.29;45.97;101525.53;673835;29;1690;-79
2022/07/13 01:10:06;;;;;;;5.50;4.15;;;;;;;24.32;46.07;101525.50;684144;28;1481;-79
2022/07/13 01:10:29;;;;;;;6.20;4.40;;;;;;;24.30;45.95;101529.09;685937;28;1840;-79
2022/07/13 01:10:52;;;;;;;6.22;4.47;;;;;;;24.31;45.99;101534.44;690412;28;1420;-80
2022/07/13 01:56:08;;;;;;;9.57;7.10;;;;;;;22.96;59.02;101531.88;692377;28;1586;-79
2022/07/13 01:56:32;;;;;;;7.80;7.00;;;;;;;22.97;58.83;101525.66;684465;28;1475;-79
2022/07/13 01:56:54;;;;;;;7.50;6.80;;;;;;;22.96;58.53;101521.25;679567;29;1134;-79
2022/07/13 01:57:16;;;;;;;8.32;7.30;;;;;;;22.94;58.32;101523.03;676870;29;1335;-79
2022/07/13 01:57:39;;;;;;;8.93;7.28;;;;;;;22.96;57.77;101523.91;679654;29;1341;-79
2022/07/13 01:58:02;;;;;;;9.55;7.60;;;;;;;22.93;57.81;101517.75;682182;29;1295;-79
2022/07/13 02:22:27;;;;;;;8.40;7.55;;;;;;;22.58;58.47;101464.91;690122;28;1528;-79
2022/07/13 02:22:49;;;;;;;8.93;7.63;;;;;;;22.66;58.36;101467.50;689664;28;1659;-79
2022/07/13 02:23:12;;;;;;;9.02;7.68;;;;;;;22.63;58.32;101462.22;684485;28;1435;-80
2022/07/13 02:58:04;;;;;;;10.10;9.07;;;;;;;22.66;59.31;101435.56;685203;28;1556;-78
2022/07/13 02:58:29;;;;;;;10.75;8.55;;;;;;;22.62;59.29;101428.50;683866;28;1959;-79
2022/07/13 02:58:53;;;;;;;12.18;8.65;;;;;;;22.62;59.12;101424.97;681457;28;1441;-78
2022/07/13 02:59:15;;;;;;;12.60;8.45;;;;;;;22.63;59.32;101424.97;679486;29;1493;-78
2022/07/13 02:59:38;;;;;;;11.30;8.70;;;;;;;22.60;59.55;101425.00;687571;28;1994;-79
2022/07/13 03:00:01;;;;;;;11.27;8.70;;;;;;;22.63;59.65;101424.97;686865;28;1408;-78
2022/07/13 03:00:25;;;;;;;9.40;8.40;;;;;;;22.60;59.75;101425.88;688586;28;1663;-78
2022/07/13 03:00:54;;;;;;;9.70;8.63;;;;;;;22.67;60.05;101431.13;689379;28;1527;-78
2022/07/13 03:01:16;;;;;;;10.05;9.05;;;;;;;22.65;59.93;101427.59;682627;28;1621;-78
2022/07/13 03:01:38;;;;;;;9.70;8.70;;;;;;;22.63;59.90;101424.97;686394;28;1710;-78
2022/07/13 03:08:28;;;;;;;9.52;8.52;;;;;;;22.68;59.89;101428.44;692637;28;1588;-78
2022/07/13 03:09:08;;;;;;;10.93;9.18;;;;;;;22.69;59.65;101421.34;694783;28;1421;-78
2022/07/13 03:09:29;;;;;;;12.10;9.70;;;;;;;22.70;59.83;101423.09;691860;28;1560;-79
2022/07/13 03:09:52;;;;;;;10.73;9.50;;;;;;;22.69;59.70;101418.69;686963;28;1582;-78
2022/07/13 03:10:15;;;;;;;10.32;9.15;;;;;;;22.66;59.63;101418.72;688882;28;1448;-78
2022/07/13 03:10:39;;;;;;;10.10;9.00;;;;;;;22.64;59.76;101418.75;688353;28;1985;-79
2022/07/13 03:11:03;;;;;;;10.27;8.60;;;;;;;22.66;59.46;101427.59;686921;28;1406;-78
2022/07/13 03:29:44;;;;;;;9.82;8.77;;;;;;;22.62;59.79;101427.66;692109;28;1785;-78
2022/07/13 03:30:11;;;;;;;11.93;8.90;;;;;;;22.60;59.80;101425.88;687049;28;1537;-79
2022/07/13 03:30:35;;;;;;;10.48;8.60;;;;;;;22.58;60.03;101418.81;681266;28;1943;-79
2022/07/13 03:31:00;;;;;;;9.50;8.48;;;;;;;22.56;59.99;101417.97;684967;28;1466;-78
2022/07/13 03:31:24;;;;;;;9.30;8.30;;;;;;;22.62;59.91;101428.50;682684;28;1869;-78
2022/07/13 03:31:46;;;;;;;9.27;8.27;;;;;;;22.62;60.15;101424.97;684684;28;1139;-78
2022/07/13 03:32:10;;;;;;;9.68;8.50;;;;;;;22.57;60.12;101414.41;684329;28;1908;-78
2022/07/13 03:32:34;;;;;;;10.15;8.80;;;;;;;22.59;60.27;101423.22;683888;28;1100;-78
2022/07/13 03:32:57;;;;;;;10.65;8.43;;;;;;;22.56;60.10;101418.81;683636;28;1475;-78
2022/07/13 03:33:21;;;;;;;11.10;9.00;;;;;;;22.58;59.88;101421.47;679553;29;1767;-78
2022/07/13 03:33:45;;;;;;;11.02;9.10;;;;;;;22.57;60.01;101417.94;679762;28;1035;-78
2022/07/13 03:34:08;;;;;;;9.90;8.90;;;;;;;22.57;60.12;101417.06;681863;29;1506;-78
2022/07/13 03:34:31;;;;;;;9.73;8.68;;;;;;;22.57;60.08;101414.41;685462;28;1740;-79
2022/07/13 03:34:54;;;;;;;10.02;9.00;;;;;;;22.56;59.83;101415.31;685934;28;1416;-79
2022/07/13 03:35:18;;;;;;;10.30;9.20;;;;;;;22.57;60.11;101409.09;678052;29;1381;-79
2022/07/13 03:35:44;;;;;;;10.77;8.90;;;;;;;22.63;59.69;101419.66;684662;28;1000;-79
2022/07/13 03:36:09;;;;;;;12.85;8.75;;;;;;;22.59;60.11;101415.25;692745;28;1248;-78
2022/07/13 03:36:32;;;;;;;10.68;8.43;;;;;;;22.55;60.07;101408.19;690035;28;1540;-79
2022/07/13 03:36:55;;;;;;;10.90;8.45;;;;;;;22.57;60.01;101414.41;687288;28;1434;-79
2022/07/13 03:37:36;;;;;;;9.70;8.55;;;;;;;22.55;59.89;101410.84;689766;28;1858;-79
2022/07/13 03:38:01;;;;;;;9.93;8.70;;;;;;;22.60;59.86;101419.66;689835;28;1545;-78
2022/07/13 03:38:27;;;;;;;10.60;9.40;;;;;;;22.59;59.91;101423.22;687013;28;1745;-78
2022/07/13 03:38:52;;;;;;;11.23;9.40;;;;;;;22.59;60.00;101417.91;685209;28;1503;-78
2022/07/13 03:39:18;;;;;;;10.55;8.80;;;;;;;22.55;59.88;101413.50;686621;28;1353;-78
2022/07/13 03:39:43;;;;;;;9.65;8.65;;;;;;;22.54;59.96;101404.69;687672;28;1513;-78
2022/07/13 03:40:08;;;;;;;9.98;8.95;;;;;;;22.58;60.18;101411.69;681998;29;1429;-79
2022/07/13 03:40:31;;;;;;;10.52;9.18;;;;;;;22.58;59.87;101411.69;681543;29;1490;-78
2022/07/13 03:40:56;;;;;;;10.40;9.30;;;;;;;22.58;59.92;101409.03;684980;28;1452;-79
2022/07/13 03:41:18;;;;;;;9.73;8.73;;;;;;;22.56;60.00;101407.31;690011;28;1587;-79
2022/07/13 03:41:41;;;;;;;9.60;8.65;;;;;;;22.57;60.10;101409.09;685896;28;1784;-78
2022/07/13 03:42:05;;;;;;;12.32;9.52;;;;;;;22.51;59.98;101403.84;682381;28;1502;-79
2022/07/13 03:42:30;;;;;;;12.88;9.57;;;;;;;22.50;60.09;101408.25;679689;29;1168;-79
2022/07/13 03:42:53;;;;;;;11.55;9.27;;;;;;;22.57;60.13;101409.09;680789;29;1388;-78
2022/07/13 03:43:18;;;;;;;10.85;9.00;;;;;;;22.49;60.01;101406.50;684970;28;1188;-78
2022/07/13 03:43:40;;;;;;;10.52;8.80;;;;;;;22.56;60.11;101407.31;687501;28;1657;-78
2022/07/13 03:44:07;;;;;;;10.30;9.20;;;;;;;22.49;59.89;101395.00;686599;28;1407;-79
2022/07/13 03:44:29;;;;;;;10.30;9.30;;;;;;;22.51;59.93;101401.16;689993;28;1862;-78
2022/07/13 03:44:52;;;;;;;9.93;8.93;;;;;;;22.50;60.05;101402.06;685946;28;1297;-79
2022/07/13 03:45:14;;;;;;;9.63;8.73;;;;;;;22.49;60.12;101402.97;684491;28;1253;-78
2022/07/13 03:45:36;;;;;;;9.80;8.85;;;;;;;22.55;60.06;101410.84;682425;29;1202;-79
2022/07/13 03:45:59;;;;;;;9.95;9.05;;;;;;;22.48;59.85;101403.88;684437;28;1132;-78
2022/07/13 03:46:24;;;;;;;9.70;8.80;;;;;;;22.51;60.13;101407.38;690474;28;851;-78
2022/07/13 03:46:49;;;;;;;10.00;9.00;;;;;;;22.50;60.09;101408.25;687787;28;1148;-79
2022/07/13 03:47:14;;;;;;;10.98;9.88;;;;;;;22.50;59.81;101404.72;688427;28;1228;-78
2022/07/13 03:47:40;;;;;;;11.10;10.00;;;;;;;22.52;59.86;101408.25;683582;28;1340;-78
2022/07/13 03:48:05;;;;;;;11.07;9.93;;;;;;;22.50;60.11;101402.94;681698;28;2036;-78
2022/07/13 03:56:23;;;;;;;11.70;9.40;;;;;;;22.53;60.21;101396.72;689742;28;1541;-79
2022/07/13 03:56:45;;;;;;;12.30;9.15;;;;;;;22.53;60.17;101402.91;685981;28;1525;-78
2022/07/13 03:57:07;;;;;;;13.05;9.50;;;;;;;22.52;60.30;101401.16;682074;29;1422;-78
2022/07/13 03:57:29;;;;;;;12.77;9.68;;;;;;;22.54;60.22;101403.78;677805;29;1778;-78
2022/07/13 03:57:51;;;;;;;12.27;9.98;;;;;;;22.52;60.12;101395.84;680680;29;1704;-78
2022/07/13 03:58:13;;;;;;;11.88;10.23;;;;;;;22.56;60.17;101407.31;681487;29;1508;-78
2022/07/13 03:58:37;;;;;;;11.38;9.93;;;;;;;22.56;59.85;101402.00;682456;28;1981;-79
2022/07/13 04:00:22;;;;;;;10.90;9.80;;;;;;;22.55;59.89;101400.22;684504;28;1477;-78
2022/07/13 04:00:46;;;;;;;11.23;10.13;;;;;;;22.59;59.74;101407.28;685449;28;1671;-78
2022/07/13 04:01:27;;;;;;;11.45;10.25;;;;;;;22.56;59.75;101407.31;681934;28;1354;-79
2022/07/13 04:01:50;;;;;;;12.23;10.38;;;;;;;22.53;59.49;101396.72;683589;28;1716;-78
2022/07/13 04:02:14;;;;;;;13.63;10.30;;;;;;;22.55;59.64;101410.84;681674;28;1635;-79
2022/07/13 04:02:37;;;;;;;13.23;10.10;;;;;;;22.53;59.71;101399.38;682513;28;1778;-78
2022/07/13 04:03:03;;;;;;;11.77;9.68;;;;;;;22.54;59.48;101403.78;685334;28;1422;-78
2022/07/13 04:03:28;;;;;;;10.88;9.77;;;;;;;22.57;59.75;101404.63;680897;29;1422;-78
2022/07/13 04:03:51;;;;;;;10.63;9.52;;;;;;;22.56;59.64;101399.34;678705;29;1733;-79
2022/07/13 04:04:14;;;;;;;10.63;9.60;;;;;;;22.57;59.69;101393.13;678853;29;1342;-78
2022/07/13 04:04:39;;;;;;;11.40;9.80;;;;;;;22.60;59.64;101406.38;680813;29;2441;-79
2022/07/13 04:05:02;;;;;;;11.60;9.80;;;;;;;22.60;59.92;101401.94;678759;29;1483;-79
2022/07/13 04:05:26;;;;;;;12.32;10.00;;;;;;;22.60;59.58;101395.72;678572;29;2268;-78
2022/07/13 04:05:48;;;;;;;12.30;9.73;;;;;;;22.60;59.60;101403.72;678057;29;1618;-78
2022/07/13 04:06:10;;;;;;;12.30;9.68;;;;;;;22.58;59.62;101394.88;681157;29;1346;-78
2022/07/13 04:06:33;;;;;;;10.52;9.35;;;;;;;22.60;59.61;101398.41;679486;29;1871;-78
2022/07/13 04:06:56;;;;;;;10.82;9.50;;;;;;;22.56;59.48;101391.38;685244;28;1503;-78
2022/07/13 04:07:18;;;;;;;10.88;9.60;;;;;;;22.58;59.35;101395.75;676542;29;1444;-79
2022/07/13 04:07:40;;;;;;;11.10;9.63;;;;;;;22.54;59.31;101382.50;680528;28;1658;-78
2022/07/13 04:08:02;;;;;;;11.52;9.60;;;;;;;22.56;59.24;101386.06;687056;28;1177;-78
2022/07/13 04:08:26;;;;;;;11.63;9.70;;;;;;;22.59;59.42;101392.22;679569;29;1663;-79
2022/07/13 04:08:51;;;;;;;10.98;9.75;;;;;;;22.59;59.28;101386.91;678807;29;1236;-79
2022/07/13 04:09:13;;;;;;;10.60;9.60;;;;;;;22.58;59.36;101390.44;687665;28;1204;-78
2022/07/13 04:09:53;;;;;;;10.77;9.65;;;;;;;22.59;59.24;101386.91;684275;28;1669;-78
2022/07/13 04:10:18;;;;;;;13.52;10.38;;;;;;;22.65;59.35;101391.25;681875;29;1164;-79
2022/07/13 04:10:39;;;;;;;13.38;10.25;;;;;;;22.64;59.37;101389.50;682278;29;1233;-78
2022/07/13 04:11:02;;;;;;;11.43;9.98;;;;;;;22.65;58.97;101385.94;685177;28;1093;-79
2022/07/13 04:11:25;;;;;;;12.85;10.48;;;;;;;22.67;58.89;101391.25;684918;28;1949;-78
2022/07/13 04:11:48;;;;;;;12.30;10.32;;;;;;;22.65;58.71;101391.25;683363;28;1259;-79
2022/07/13 04:16:00;;;;;;;12.45;9.93;;;;;;;22.73;58.09;101393.78;689650;28;1488;-79
2022/07/13 04:16:26;;;;;;;12.65;10.20;;;;;;;22.69;58.14;101392.94;683095;28;1484;-78
2022/07/13 04:16:49;;;;;;;11.50;10.30;;;;;;;22.72;58.01;101394.69;675850;29;1656;-78
2022/07/13 04:17:13;;;;;;;11.50;9.88;;;;;;;22.70;58.12;101397.38;681541;29;1444;-79
2022/07/13 04:17:38;;;;;;;10.63;9.52;;;;;;;22.70;57.93;101394.72;680672;28;1416;-79
2022/07/13 04:18:00;;;;;;;10.65;9.50;;;;;;;22.70;57.76;101400.03;677604;29;1597;-78
2022/07/13 04:18:23;;;;;;;10.25;9.25;;;;;;;22.72;57.84;101395.59;679051;29;1433;-78
2022/07/13 04:18:45;;;;;;;10.82;9.70;;;;;;;22.71;57.95;101396.50;679775;28;1681;-79
2022/07/13 04:19:08;;;;;;;12.07;10.05;;;;;;;22.76;57.76;101392.88;683789;28;1352;-78
2022/07/13 04:19:31;;;;;;;13.85;9.95;;;;;;;22.75;57.74;101402.66;679320;29;1807;-78
2022/07/13 04:19:52;;;;;;;12.98;9.18;;;;;;;22.73;58.01;101400.00;680464;28;1477;-78
2022/07/13 04:20:17;;;;;;;11.07;9.40;;;;;;;22.78;57.92;101404.38;675693;29;1789;-78
2022/07/13 04:20:42;;;;;;;10.90;9.45;;;;;;;22.80;57.84;101399.94;676463;29;1375;-79
2022/07/13 04:21:07;;;;;;;10.80;9.15;;;;;;;22.77;57.56;101394.63;676843;29;1447;-78
2022/07/13 04:21:29;;;;;;;10.07;8.60;;;;;;;22.78;57.92;101404.38;679426;29;2021;-78
2022/07/13 04:21:52;;;;;;;11.40;8.68;;;;;;;22.76;57.77;101403.53;678963;29;1749;-78
2022/07/13 04:22:17;;;;;;;10.70;8.40;;;;;;;22.78;57.55;101399.94;681094;29;1835;-78
2022/07/13 04:22:41;;;;;;;11.60;9.15;;;;;;;22.80;57.35;101408.78;681163;29;1883;-78
2022/07/13 04:23:06;;;;;;;12.40;9.23;;;;;;;22.80;57.43;101406.13;683546;28;1433;-78
2022/07/13 04:23:30;;;;;;;12.18;9.27;;;;;;;22.81;57.46;101401.69;678234;29;1722;-78
2022/07/13 04:23:53;;;;;;;11.07;9.40;;;;;;;22.83;57.45;101406.09;679669;29;1565;-79
2022/07/13 04:24:15;;;;;;;10.27;9.27;;;;;;;22.84;57.30;101405.19;681523;29;1422;-79
2022/07/13 04:24:37;;;;;;;10.10;9.07;;;;;;;22.77;57.18;101389.31;682844;28;1764;-78
2022/07/13 04:25:00;;;;;;;11.70;9.35;;;;;;;22.85;57.39;101406.94;682758;28;1417;-78
2022/07/13 04:25:22;;;;;;;11.77;9.50;;;;;;;22.86;57.63;101403.38;684560;28;1296;-79
2022/07/13 04:29:25;;;;;;;10.63;8.90;;;;;;;22.96;57.48;101398.81;686812;28;1456;-79
2022/07/13 04:29:47;;;;;;;8.57;7.70;;;;;;;22.96;57.18;101393.50;687731;28;1578;-79
2022/07/13 04:30:09;;;;;;;8.70;7.90;;;;;;;22.99;56.99;101396.13;685184;28;1163;-78
2022/07/13 04:30:31;;;;;;;8.90;7.80;;;;;;;22.95;56.81;101391.75;685681;28;1513;-78
2022/07/13 04:30:54;;;;;;;10.27;7.80;;;;;;;22.94;56.88;101387.28;687518;28;1021;-79
2022/07/13 04:31:20;;;;;;;10.90;8.23;;;;;;;23.00;57.02;101397.03;687245;28;1353;-78
2022/07/13 04:32:07;;;;;;;10.88;8.30;;;;;;;22.99;57.10;101396.13;684846;28;1049;-78
2022/07/13 04:32:28;;;;;;;9.40;8.00;;;;;;;22.97;57.01;101387.28;678078;29;1787;-78
2022/07/13 04:32:49;;;;;;;8.98;8.07;;;;;;;22.99;57.33;101388.16;679741;29;893;-79
2022/07/13 04:33:17;;;;;;;8.63;7.82;;;;;;;22.98;57.15;101385.47;681695;29;1477;-78
2022/07/13 04:33:41;;;;;;;8.23;7.43;;;;;;;22.97;56.97;101381.06;681957;29;1582;-79
2022/07/13 04:34:07;;;;;;;8.20;7.40;;;;;;;23.05;57.06;101378.31;684511;28;1194;-78
2022/07/13 04:34:31;;;;;;;8.57;7.68;;;;;;;23.05;56.72;101383.66;684962;28;1094;-78
2022/07/13 04:34:54;;;;;;;9.30;8.30;;;;;;;23.04;56.96;101385.41;683119;28;1273;-79
2022/07/13 04:35:20;;;;;;;8.25;7.45;;;;;;;23.05;57.07;101389.84;682140;29;1278;-78
2022/07/13 04:35:54;;;;;;;7.85;7.05;;;;;;;23.04;57.11;101395.22;682169;28;1702;-78
2022/07/13 04:36:16;;;;;;;7.90;7.10;;;;;;;23.05;56.85;101384.50;682136;29;1140;-78
2022/07/13 04:36:43;;;;;;;8.10;7.30;;;;;;;23.03;56.66;101383.66;681884;29;1900;-78
2022/07/13 04:37:07;;;;;;;8.70;7.80;;;;;;;23.06;56.33;101396.06;682057;29;1168;-79
2022/07/13 04:53:24;;;;;;;6.97;5.60;;;;;;;23.37;52.90;101369.81;690272;28;1381;-78
2022/07/13 04:53:48;;;;;;;6.93;5.68;;;;;;;23.41;53.33;101370.66;686585;28;1608;-78
2022/07/13 04:54:10;;;;;;;7.10;5.45;;;;;;;23.44;53.18;101365.28;681967;28;1576;-79
2022/07/13 04:54:32;;;;;;;7.88;5.35;;;;;;;23.46;53.50;101370.56;681708;28;1876;-79
2022/07/13 04:54:55;;;;;;;7.90;5.40;;;;;;;23.45;53.58;101371.47;682412;28;1478;-79
2022/07/13 05:11:33;;;;;;;6.55;5.10;;;;;;;23.88;52.14;101354.78;693230;28;1373;-78
2022/07/13 05:11:57;;;;;;;8.13;5.25;;;;;;;23.87;52.31;101362.81;688417;28;1734;-78
2022/07/13 05:12:21;;;;;;;7.28;5.20;;;;;;;23.91;52.14;101359.19;682337;29;1908;-78
2022/07/13 05:12:45;;;;;;;6.95;4.82;;;;;;;23.90;52.22;101347.63;681495;29;1963;-78
2022/07/13 05:13:38;;;;;;;6.70;4.90;;;;;;;23.95;52.31;101361.75;681686;29;1818;-78
2022/07/13 05:13:59;;;;;;;6.80;5.00;;;;;;;23.93;52.41;101354.69;680375;29;1670;-78
2022/07/13 05:14:23;;;;;;;6.40;4.90;;;;;;;23.95;52.46;101356.44;683198;29;1514;-78
2022/07/13 05:14:47;;;;;;;6.38;4.75;;;;;;;24.01;52.09;101363.44;679744;29;1987;-78
2022/07/13 05:15:11;;;;;;;5.90;5.00;;;;;;;23.99;52.05;101356.34;684261;28;1464;-78
2022/07/13 05:15:35;;;;;;;6.00;4.93;;;;;;;24.03;52.28;101361.59;682649;28;1846;-78
2022/07/13 05:15:57;;;;;;;5.35;4.85;;;;;;;24.01;52.18;101360.75;684521;28;1481;-78
2022/07/13 05:16:20;;;;;;;5.50;5.00;;;;;;;24.03;52.00;101361.59;687683;28;1344;-78
2022/07/13 05:16:44;;;;;;;6.07;5.40;;;;;;;24.01;52.08;101350.09;689528;28;1731;-78
2022/07/13 05:17:08;;;;;;;7.35;5.15;;;;;;;24.02;52.27;101351.00;684420;28;1608;-78
2022/07/13 05:25:16;;;;;;;5.00;4.50;;;;;;;24.21;50.84;101344.38;692156;28;1409;-78
2022/07/13 05:25:39;;;;;;;5.10;4.55;;;;;;;24.27;50.72;101351.34;691020;28;1727;-77
2022/07/13 05:26:05;;;;;;;5.25;4.75;;;;;;;24.19;50.64;101343.53;687157;28;1553;-77
2022/07/13 05:26:28;;;;;;;5.32;4.70;;;;;;;24.21;50.88;101343.47;684070;28;1919;-78
2022/07/13 05:26:50;;;;;;;6.05;4.80;;;;;;;24.20;50.62;101344.38;681527;29;1563;-78
2022/07/13 05:27:12;;;;;;;7.10;4.90;;;;;;;24.26;50.59;101341.59;683930;28;1480;-78
2022/07/13 05:27:36;;;;;;;6.15;4.85;;;;;;;24.22;50.77;101335.44;682192;28;1487;-78
2022/07/13 05:27:57;;;;;;;6.53;5.03;;;;;;;24.22;50.58;101326.59;686617;28;1441;-78
2022/07/13 05:28:18;;;;;;;5.60;4.70;;;;;;;24.23;50.52;101333.69;686632;28;1568;-78
2022/07/13 05:28:39;;;;;;;6.15;4.80;;;;;;;24.23;50.83;101333.69;683880;28;1509;-78
2022/07/13 05:29:06;;;;;;;5.18;4.68;;;;;;;24.26;50.93;101333.59;679479;29;1371;-78
2022/07/13 05:29:29;;;;;;;5.15;4.65;;;;;;;24.23;51.19;101328.34;681604;29;1386;-78
2022/07/13 05:29:51;;;;;;;5.25;4.75;;;;;;;24.27;51.01;101323.81;687443;28;1695;-78
2022/07/13 05:30:14;;;;;;;5.13;4.63;;;;;;;24.28;50.86;101321.09;686209;28;1437;-78
2022/07/13 05:30:36;;;;;;;5.30;4.68;;;;;;;24.31;51.02;101323.72;683560;28;1701;-80
2022/07/13 05:30:59;;;;;;;8.37;4.80;;;;;;;24.37;51.11;101326.28;685398;28;1271;-78
2022/07/13 05:31:20;;;;;;;8.88;5.03;;;;;;;24.37;51.12;101325.38;682437;28;1221;-77
2022/07/13 05:31:42;;;;;;;8.80;5.20;;;;;;;24.31;51.10;101318.41;683925;28;2025;-77
2022/07/13 05:32:06;;;;;;;6.13;5.15;;;;;;;24.34;51.19;101312.97;682005;29;1917;-78
2022/07/13 05:32:28;;;;;;;6.78;4.90;;;;;;;24.37;51.54;101320.94;687654;28;1699;-78
2022/07/13 05:32:50;;;;;;;5.95;4.47;;;;;;;24.36;51.75;101324.50;690233;28;1786;-78
2022/07/13 05:33:16;;;;;;;6.15;4.53;;;;;;;24.37;52.00;101315.59;687748;28;1715;-79
2022/07/13 05:34:01;;;;;;;6.30;4.72;;;;;;;24.45;51.97;101327.91;685391;28;1197;-79
2022/07/13 05:34:26;;;;;;;6.75;4.80;;;;;;;24.40;51.84;101319.09;686774;28;1417;-78
2022/07/13 05:34:49;;;;;;;5.60;4.60;;;;;;;24.42;51.75;101325.31;685354;28;1633;-79
2022/07/13 06:31:34;;;;;;;3.40;3.10;;;;;;;26.90;41.89;101317.94;692891;28;1709;-81
2022/07/13 06:31:58;;;;;;;3.30;3.00;;;;;;;26.94;42.00;101321.38;687599;28;1480;-80
2022/07/13 06:32:20;;;;;;;3.30;3.00;;;;;;;26.90;41.80;101314.38;682384;28;1911;-81
2022/07/13 06:32:42;;;;;;;3.70;3.20;;;;;;;26.90;41.59;101317.03;684209;28;1673;-81
2022/07/13 06:33:43;;;;;;;5.20;3.28;;;;;;;26.94;41.55;101326.75;687199;28;1530;-81
2022/07/13 06:45:52;;;;;;;4.75;3.75;;;;;;;27.29;41.28;101310.47;690285;28;1759;-81
2022/07/13 06:46:14;;;;;;;4.43;3.60;;;;;;;27.24;41.17;101307.94;687312;28;1424;-81
2022/07/13 06:46:37;;;;;;;5.05;3.40;;;;;;;27.23;41.13;101309.72;686713;28;1947;-81
2022/07/13 06:47:00;;;;;;;4.82;3.30;;;;;;;27.32;41.06;101313.03;686207;28;1710;-81
2022/07/13 06:47:21;;;;;;;5.43;3.20;;;;;;;27.29;41.14;101319.38;684849;28;1368;-80
2022/07/13 06:47:43;;;;;;;4.50;3.30;;;;;;;27.27;40.98;101307.81;681571;29;1729;-81
2022/07/13 06:50:15;;;;;;;4.32;3.38;;;;;;;27.34;41.24;101314.72;694581;28;1561;-80
2022/07/13 06:50:51;;;;;;;;;;;;;;;;;;;;;
2022/07/13 06:51:38;;;;;;;5.38;3.30;;;;;;;27.42;40.95;101306.41;687007;28;1886;-82
2022/07/13 06:54:36;;;;;;;4.40;3.35;;;;;;;27.64;40.91;101305.66;695647;28;1479;-81
2022/07/13 06:56:51;;;;;;;7.78;4.10;;;;;;;27.80;40.67;101308.72;690083;28;1655;-81
2022/07/13 06:57:25;;;;;;;5.75;3.63;;;;;;;27.76;40.59;101302.59;690309;28;1344;-81
2022/07/13 06:57:49;;;;;;;5.55;3.67;;;;;;;27.77;40.88;101296.28;688555;28;1724;-81
2022/07/13 06:58:12;;;;;;;4.30;3.70;;;;;;;27.80;40.89;101306.03;688296;28;1774;-81
2022/07/13 06:58:35;;;;;;;4.28;3.63;;;;;;;27.81;40.88;101305.09;679008;29;1633;-80
2022/07/13 06:58:57;;;;;;;4.40;3.38;;;;;;;27.89;40.89;101305.69;681044;29;1716;-81
2022/07/13 06:59:19;;;;;;;6.90;3.63;;;;;;;27.88;41.13;101301.25;681860;29;1368;-81
2022/07/13 06:59:42;;;;;;;9.35;3.72;;;;;;;27.90;41.02;101302.06;682432;28;1960;-81
2022/07/13 07:00:06;;;;;;;8.50;3.70;;;;;;;27.88;40.72;101298.59;686837;28;1763;-81
2022/07/13 07:00:28;;;;;;;6.80;3.40;;;;;;;27.97;40.60;101312.56;688889;28;1455;-81
2022/07/13 07:00:51;;;;;;;4.13;3.33;;;;;;;27.98;40.56;101300.91;684251;28;2038;-81
2022/07/13 07:01:13;;;;;;;3.60;3.30;;;;;;;27.97;40.53;101301.84;684826;28;1782;-81
2022/07/13 07:01:35;;;;;;;4.45;3.30;;;;;;;28.04;40.75;101309.59;684725;28;1815;-81
2022/07/13 07:01:57;;;;;;;4.72;3.40;;;;;;;28.03;40.53;101307.00;683823;28;1392;-81
2022/07/13 07:02:18;;;;;;;5.20;3.25;;;;;;;28.08;40.14;101307.69;687299;28;1218;-80
2022/07/13 07:02:56;;;;;;;4.07;3.13;;;;;;;28.07;40.44;101297.88;687918;28;1934;-81
2022/07/13 07:03:20;;;;;;;4.30;3.40;;;;;;;28.10;40.21;101305.84;686094;28;1566;-81
2022/07/13 07:03:42;;;;;;;5.28;3.47;;;;;;;28.16;40.43;101316.31;684435;28;1739;-81
2022/07/13 07:04:04;;;;;;;4.35;3.40;;;;;;;28.20;40.08;101309.03;686738;28;1429;-80
2022/07/13 07:04:27;;;;;;;4.68;3.30;;;;;;;28.19;39.90;101301.91;684467;28;1531;-81
2022/07/13 07:04:49;;;;;;;4.50;3.20;;;;;;;28.24;40.06;101304.41;682509;28;1659;-81
2022/07/13 07:05:12;;;;;;;5.00;3.10;;;;;;;28.28;40.43;101306.94;684964;28;1328;-81
2022/07/13 07:05:34;;;;;;;4.80;3.05;;;;;;;28.32;40.06;101313.97;687012;28;1677;-81
2022/07/13 07:30:48;;;;;;;6.50;3.80;;;;;;;29.16;38.89;101304.38;695156;28;1460;-81
2022/07/13 07:39:13;;;;;;;5.65;3.60;;;;;;;29.84;37.19;101287.13;694530;28;1475;-81
2022/07/13 07:39:55;;;;;;;9.77;3.90;;;;;;;29.90;37.18;101294.03;692517;28;1519;-81
2022/07/13 07:40:17;;;;;;;8.25;3.92;;;;;;;29.96;36.80;101301.84;686763;28;1527;-81
2022/07/13 07:47:06;;;;;;;6.72;3.47;;;;;;;30.36;35.53;101291.91;692390;28;1070;-82
2022/07/13 07:47:47;;;;;;;5.22;3.50;;;;;;;30.51;35.01;101279.53;683836;28;1696;-81
2022/07/13 07:48:09;;;;;;;3.88;3.47;;;;;;;30.56;34.78;101284.72;685779;28;1385;-81
2022/07/13 07:48:32;;;;;;;4.28;3.35;;;;;;;30.57;34.74;101280.19;685562;28;1441;-82
2022/07/13 07:50:47;;;;;;;4.82;3.20;;;;;;;30.74;33.92;101277.56;687997;28;1571;-80
2022/07/13 07:51:10;;;;;;;4.45;3.30;;;;;;;30.78;33.91;101280.97;684937;28;1237;-81
2022/07/13 07:51:35;;;;;;;3.80;3.40;;;;;;;30.84;34.04;101283.38;682205;29;1362;-81
2022/07/13 07:51:59;;;;;;;4.65;3.50;;;;;;;30.88;33.73;101286.78;681992;28;1184;-81
2022/07/13 07:55:52;;;;;;;3.20;2.90;;;;;;;31.08;33.19;101283.06;692682;28;1190;-81
2022/07/13 07:56:14;;;;;;;3.38;3.00;;;;;;;31.10;33.12;101275.78;682011;29;1139;-81
2022/07/13 08:01:17;;;;;;;3.20;2.90;;;;;;;31.27;31.88;101271.34;691539;28;1474;-81
2022/07/13 08:01:39;;;;;;;11.50;3.20;;;;;;;31.27;32.04;101260.56;676581;29;1481;-81
2022/07/13 08:02:02;;;;;;;4.38;3.05;;;;;;;31.38;31.83;101274.38;673922;29;1249;-81
2022/07/13 08:02:47;;;;;;;5.28;3.15;;;;;;;31.38;32.03;101263.59;673006;29;1459;-82
2022/07/13 08:05:06;;;;;;;3.78;2.88;;;;;;;31.61;31.42;101266.91;682239;28;1498;-82
2022/07/13 08:05:33;;;;;;;3.75;2.90;;;;;;;31.61;31.52;101266.91;684134;28;1515;-81
2022/07/13 08:10:12;;;;;;;2.80;2.60;;;;;;;31.85;30.33;101275.50;688077;28;1435;-81
2022/07/13 08:10:35;;;;;;;3.40;3.10;;;;;;;31.86;30.23;101269.16;681366;29;1461;-81
2022/07/13 08:13:36;;;;;;;5.10;3.15;;;;;;;31.86;29.83;101262.91;689524;28;1517;-82
2022/07/13 08:16:03;;;;;;;5.28;3.00;;;;;;;31.81;29.67;101249.66;691667;28;1510;-81
2022/07/13 08:16:27;;;;;;;5.70;3.20;;;;;;;31.83;29.82;101247.75;690129;28;1108;-81
2022/07/13 08:27:21;;;;;;;4.15;2.97;;;;;;;32.62;27.60;101266.78;692317;28;1385;-81
2022/07/13 08:27:49;;;;;;;3.45;3.00;;;;;;;32.65;27.53;101266.59;682013;29;911;-82
2022/07/13 08:28:11;;;;;;;3.35;3.00;;;;;;;32.64;27.64;101274.81;679824;29;1194;-81